KELK

Details ICAO KELK
Name ELK CITY RGNL BUSINESS
Region United States
Timezone America/Chicago (UTC-6.0)
Plans Departing 1
Arriving 3
Stats Elevation 2,002 ft / 610 m (AMSL)
Location 35.430793° -99.394267°
Runways 1
Magnetic Variation 4.864° E
Sunrise 2017-12-13 13:39:36 UTC / 2017-12-13 07:39:36 Local
Sunset 2017-12-13 23:27:03 UTC / 2017-12-13 17:27:03 Local
Advertisement - Login to hide

Runways

ID Width Length Bearing (true) Bearing (mag) Surface Threshold Offset Overrun Length
17 75 ft / 23 m 5,414 ft / 1,650 m 180.12° 175.26° Concrete 0 ft / 0 m 0 ft / 0 m
35 75 ft / 23 m 5,414 ft / 1,650 m 0.12° 355.26° Concrete 0 ft / 0 m 0 ft / 0 m

Map

Weather


0- 5 10 15 20 25 30 35+ Temperature / ° C

Clouds and Precipitation
Forecast for 2017-12-14 06:00 UTC. Updated an hour ago

Ground ~20,000 ft ~40,000 ft Winds

METAR

KELK 140435Z AUTO 34009KT 10SM CLR 05/M07 A2997 RMK AO2 T00521072

TAF

Not found

Frequencies

Recorded 118.22 MHz AWOS 3
Approach 128.40 MHz FORT WORTH CNTR
Unicom 122.80 MHz CTAF/UNICOM
Warning: Do not use this data for real-world aviation or navigation. No guarantee of current accuracy is given.